Time;durP1;ratioP1;P1;durP2;ratioP2;P2;SDS_P1;SDS_P2;PMS_P1;PMS_P2;Temp;Humidity;BMP_temperature;BMP_pressure;BME280_temperature;BME280_humidity;BME280_pressure;Samples;Min_cycle;Max_cycle;Signal;HPM_P1;HPM_P2
2021/07/09 00:02:00;;;;;;;6.43;4.67;;;19.80;99.90;;;;;;6191582;23;20381;-48
2021/07/09 00:04:27;;;;;;;6.00;5.40;;;19.80;99.90;;;;;;6192285;23;20428;-50
2021/07/09 00:06:55;;;;;;;5.17;4.67;;;19.80;99.90;;;;;;6192457;23;20416;-47
2021/07/09 00:09:23;;;;;;;4.60;4.20;;;19.80;99.90;;;;;;6205444;23;20428;-49
2021/07/09 00:11:52;;;;;;;9.57;4.97;;;19.80;99.90;;;;;;6212433;23;20447;-50
2021/07/09 00:14:22;;;;;;;5.67;5.17;;;19.80;99.90;;;;;;6212108;23;20440;-48
2021/07/09 00:16:50;;;;;;;6.63;5.33;;;19.70;99.90;;;;;;6212559;23;20389;-50
2021/07/09 00:19:18;;;;;;;6.47;5.80;;;19.70;99.90;;;;;;6212665;23;20464;-50
2021/07/09 00:21:44;;;;;;;5.53;5.00;;;19.80;99.90;;;;;;6212798;23;20448;-50
2021/07/09 00:24:12;;;;;;;6.20;5.33;;;19.80;99.90;;;;;;6212218;23;20405;-48
2021/07/09 00:26:39;;;;;;;5.13;4.53;;;19.80;99.90;;;;;;6211831;23;20405;-49
2021/07/09 00:29:06;;;;;;;5.87;5.30;;;19.80;99.90;;;;;;6212148;23;20431;-48
2021/07/09 00:31:34;;;;;;;6.20;4.70;;;19.80;99.90;;;;;;6212085;23;20432;-45
2021/07/09 00:34:02;;;;;;;6.33;4.40;;;19.80;99.90;;;;;;6209554;23;20405;-42
2021/07/09 00:41:41;;;;;;;5.10;4.60;;;19.80;99.90;;;;;;6074899;23;20418;-42
2021/07/09 00:51:54;;;;;;;6.63;5.00;;;19.70;99.90;;;;;;6118975;23;20460;-45
2021/07/09 01:09:54;;;;;;;7.70;4.80;;;19.80;99.90;;;;;;6115030;23;20958;-47
2021/07/09 02:22:02;;;;;;;5.73;4.97;;;19.60;99.90;;;;;;6116250;23;20543;31
2021/07/09 02:24:29;;;;;;;7.63;5.10;;;19.60;99.90;;;;;;6094544;23;20436;-50
2021/07/09 02:26:56;;;;;;;5.17;4.23;;;19.60;99.90;;;;;;6094392;23;20450;-51
2021/07/09 02:29:22;;;;;;;4.00;3.60;;;19.60;99.90;;;;;;6094384;23;20414;-49
2021/07/09 02:31:53;;;;;;;6.30;4.93;;;19.60;99.90;;;;;;6093928;23;20424;-44
2021/07/09 02:34:21;;;;;;;7.03;3.63;;;19.60;99.90;;;;;;6074070;23;20531;-47
2021/07/09 02:36:48;;;;;;;5.97;4.20;;;19.60;99.90;;;;;;6068341;23;20487;-41
2021/07/09 02:39:17;;;;;;;5.77;4.70;;;19.60;99.90;;;;;;6068996;23;20408;-51
2021/07/09 03:23:14;;;;;;;6.10;4.80;;;19.50;99.90;;;;;;6118954;23;20454;-49
2021/07/09 03:25:41;;;;;;;5.40;4.80;;;19.50;99.90;;;;;;6099259;23;20475;-42
2021/07/09 03:28:08;;;;;;;5.53;5.03;;;19.50;99.90;;;;;;6099253;23;20766;-44
2021/07/09 03:38:22;;;;;;;5.10;4.60;;;19.50;99.90;;;;;;6105735;23;20905;-44
2021/07/09 03:40:49;;;;;;;5.67;4.00;;;19.50;99.90;;;;;;6132812;23;20909;-42
2021/07/09 03:43:15;;;;;;;5.60;4.40;;;19.50;99.90;;;;;;6131902;23;20423;-44
2021/07/09 03:45:42;;;;;;;7.60;5.43;;;19.50;99.90;;;;;;6131211;23;20462;-40
2021/07/09 03:53:20;;;;;;;7.37;4.80;;;19.50;99.90;;;;;;6115068;23;20464;-42
2021/07/09 04:06:30;;;;;;;7.60;5.30;;;19.60;99.90;;;;;;6158545;23;20438;-45
2021/07/09 04:11:32;;;;;;;5.93;5.40;;;19.60;99.90;;;;;;6147363;23;20945;-44
2021/07/09 04:13:59;;;;;;;6.03;5.33;;;19.50;99.90;;;;;;6187417;23;20401;-46
2021/07/09 05:05:42;;;;;;;8.07;7.37;;;19.30;99.90;;;;;;6127477;23;20466;-48
2021/07/09 05:08:09;;;;;;;8.13;6.70;;;19.30;99.90;;;;;;6127792;23;20387;-43
2021/07/09 05:10:39;;;;;;;9.80;7.87;;;19.30;99.90;;;;;;6127703;23;20395;-44
2021/07/09 05:13:06;;;;;;;10.87;7.53;;;19.30;99.90;;;;;;6127737;23;20391;-42
2021/07/09 05:15:33;;;;;;;7.77;6.90;;;19.20;99.90;;;;;;6141125;23;20403;-46
2021/07/09 05:17:59;;;;;;;8.20;7.50;;;19.20;99.90;;;;;;6134822;23;20745;-44
2021/07/09 05:20:26;;;;;;;11.57;7.90;;;19.20;99.90;;;;;;6127162;23;20781;-41
2021/07/09 05:22:54;;;;;;;11.53;9.00;;;19.10;99.90;;;;;;6127564;23;20422;-45
2021/07/09 05:25:21;;;;;;;17.47;9.03;;;19.10;99.90;;;;;;6127575;23;20442;-42
2021/07/09 05:27:48;;;;;;;12.20;8.70;;;19.10;99.90;;;;;;6126832;23;20406;-49
2021/07/09 05:30:16;;;;;;;8.33;7.63;;;19.10;99.90;;;;;;6126646;23;20455;-49
2021/07/09 05:32:44;;;;;;;9.60;8.60;;;19.00;99.90;;;;;;6128086;23;20443;-47
2021/07/09 05:35:11;;;;;;;11.13;7.97;;;19.00;99.90;;;;;;6127033;23;20418;-43
2021/07/09 05:37:38;;;;;;;8.50;7.60;;;19.00;99.90;;;;;;6127879;23;20417;-44
2021/07/09 05:40:08;;;;;;;10.20;8.43;;;19.00;99.90;;;;;;6126848;23;20505;-44
2021/07/09 05:42:35;;;;;;;8.47;7.70;;;19.00;99.90;;;;;;6128166;23;20399;-51
2021/07/09 05:45:02;;;;;;;9.77;8.00;;;19.00;99.90;;;;;;6128451;23;20399;-43
2021/07/09 05:47:29;;;;;;;10.37;8.70;;;19.00;99.90;;;;;;6128258;23;20406;-42
2021/07/09 05:49:55;;;;;;;10.03;7.50;;;19.00;99.90;;;;;;6128285;23;20685;-44
2021/07/09 05:52:22;;;;;;;9.07;8.13;;;19.00;99.90;;;;;;6128189;23;20406;-43
2021/07/09 05:54:49;;;;;;;9.33;7.50;;;19.00;99.90;;;;;;6128380;23;20402;-50
2021/07/09 05:57:17;;;;;;;10.63;8.30;;;19.00;99.90;;;;;;6127854;23;20423;-44
2021/07/09 05:59:43;;;;;;;11.03;9.23;;;19.00;99.90;;;;;;6128564;23;20406;-49
2021/07/09 06:02:10;;;;;;;9.50;8.50;;;19.10;99.90;;;;;;6128191;23;20399;-49
2021/07/09 06:04:37;;;;;;;11.20;9.57;;;19.10;99.90;;;;;;6128143;23;20402;-43
2021/07/09 06:07:04;;;;;;;9.80;8.90;;;19.10;99.90;;;;;;6128378;23;20487;-45
2021/07/09 06:09:33;;;;;;;11.10;8.90;;;19.10;99.90;;;;;;6128906;23;20415;-43
2021/07/09 06:11:59;;;;;;;9.23;8.33;;;19.10;99.90;;;;;;6128236;23;20456;-44
2021/07/09 06:14:27;;;;;;;9.63;8.60;;;19.10;99.90;;;;;;6127945;23;20402;-43
2021/07/09 06:16:54;;;;;;;10.40;9.30;;;19.10;99.90;;;;;;6128611;23;20485;-41
2021/07/09 06:19:21;;;;;;;10.47;9.37;;;19.10;99.90;;;;;;6127864;23;20473;-47
2021/07/09 06:21:47;;;;;;;9.90;9.00;;;19.20;99.90;;;;;;6128395;23;20509;-41
2021/07/09 06:24:14;;;;;;;14.40;10.40;;;19.20;99.90;;;;;;6127992;23;20422;-42
2021/07/09 06:26:41;;;;;;;11.33;9.60;;;19.20;99.90;;;;;;6128351;23;20453;-41
2021/07/09 06:29:09;;;;;;;11.27;9.80;;;19.30;99.90;;;;;;6128234;23;20408;-47
2021/07/09 06:31:37;;;;;;;11.20;10.10;;;19.30;99.90;;;;;;6129604;23;20398;-45
2021/07/09 06:34:04;;;;;;;11.93;10.40;;;19.30;99.90;;;;;;6130587;23;20419;-42
2021/07/09 06:36:30;;;;;;;11.77;9.70;;;19.30;99.90;;;;;;6129991;23;20932;-50
2021/07/09 06:38:57;;;;;;;10.80;9.70;;;19.30;99.90;;;;;;6129910;23;20402;-47
2021/07/09 06:41:24;;;;;;;11.07;9.27;;;19.40;99.90;;;;;;6130347;23;20442;-47
2021/07/09 06:43:50;;;;;;;12.03;8.87;;;19.40;99.90;;;;;;6129928;23;20769;-43
2021/07/09 06:46:17;;;;;;;12.80;10.47;;;19.50;99.90;;;;;;6130384;23;20912;-52
2021/07/09 06:48:45;;;;;;;11.83;9.63;;;19.50;99.90;;;;;;6130298;23;20509;-41
2021/07/09 06:51:12;;;;;;;10.83;9.83;;;19.50;99.90;;;;;;6130152;23;20406;-41
2021/07/09 06:53:39;;;;;;;13.37;10.30;;;19.50;99.90;;;;;;6129908;23;20444;-43
2021/07/09 06:56:09;;;;;;;10.67;9.67;;;19.60;99.90;;;;;;6130058;23;20783;-44
2021/07/09 06:58:36;;;;;;;10.90;9.90;;;19.60;99.90;;;;;;6129944;23;20411;-46
2021/07/09 07:01:02;;;;;;;11.93;10.70;;;19.50;99.90;;;;;;6130094;23;20474;-47
2021/07/09 07:03:29;;;;;;;11.67;10.57;;;19.60;99.90;;;;;;6129412;23;20410;-46
2021/07/09 07:05:57;;;;;;;12.90;11.50;;;19.60;99.90;;;;;;6128879;23;20917;-45
2021/07/09 07:08:25;;;;;;;11.77;10.57;;;19.60;99.90;;;;;;6130031;23;20414;-43
2021/07/09 07:10:53;;;;;;;10.77;9.50;;;19.60;99.90;;;;;;6129930;23;20429;-44
2021/07/09 07:13:20;;;;;;;11.47;10.30;;;19.70;99.90;;;;;;6129798;23;20403;-46
2021/07/09 07:15:47;;;;;;;13.23;10.17;;;19.70;99.90;;;;;;6129907;23;20750;-50
2021/07/09 07:18:13;;;;;;;13.10;11.73;;;19.70;99.90;;;;;;6129579;23;20418;-47
2021/07/09 07:20:42;;;;;;;12.87;11.57;;;19.70;99.90;;;;;;6129821;23;20506;-47
2021/07/09 07:23:11;;;;;;;13.93;11.60;;;19.80;99.90;;;;;;6130084;23;20473;-46
2021/07/09 07:25:38;;;;;;;15.70;13.17;;;19.70;99.90;;;;;;6129800;23;20473;-44
2021/07/09 07:28:06;;;;;;;14.40;13.13;;;19.80;99.90;;;;;;6129608;23;20853;-46
2021/07/09 07:30:33;;;;;;;14.20;12.90;;;19.80;99.90;;;;;;6129411;23;20486;-42
2021/07/09 07:33:00;;;;;;;13.27;12.03;;;19.80;99.90;;;;;;6129990;23;20411;-44
2021/07/09 07:35:28;;;;;;;17.60;12.53;;;19.80;99.90;;;;;;6129210;23;20859;-49
2021/07/09 07:37:54;;;;;;;15.43;12.87;;;19.80;99.90;;;;;;6129450;23;20427;-42
2021/07/09 07:40:22;;;;;;;13.00;11.70;;;19.80;99.90;;;;;;6129683;23;20493;-46
2021/07/09 07:42:49;;;;;;;13.43;11.83;;;19.80;99.90;;;;;;6129334;23;20406;-42
2021/07/09 07:45:16;;;;;;;15.70;12.67;;;19.80;99.90;;;;;;6129425;23;20709;-49
2021/07/09 07:47:43;;;;;;;15.80;12.60;;;19.90;99.90;;;;;;6129146;23;20461;-42
2021/07/09 07:50:11;;;;;;;16.93;12.17;;;19.90;99.90;;;;;;6129673;23;20474;-43
2021/07/09 07:52:37;;;;;;;12.13;10.93;;;20.00;99.90;;;;;;6129426;23;20413;-41
2021/07/09 07:55:05;;;;;;;12.07;10.97;;;20.10;99.90;;;;;;6129511;23;20481;-44
2021/07/09 07:57:33;;;;;;;15.30;12.90;;;20.10;99.90;;;;;;6129632;23;20434;-41
2021/07/09 08:00:00;;;;;;;14.87;13.03;;;20.10;99.90;;;;;;6128840;23;20473;-43
2021/07/09 08:02:26;;;;;;;15.03;13.40;;;20.10;99.90;;;;;;6128909;23;20454;-44
2021/07/09 08:04:53;;;;;;;15.13;12.17;;;20.20;99.90;;;;;;6128686;23;20442;-47
2021/07/09 08:07:20;;;;;;;14.30;12.20;;;20.20;99.90;;;;;;6129553;23;20411;-45
2021/07/09 08:09:47;;;;;;;15.67;14.13;;;20.20;99.90;;;;;;6128682;23;20897;-41
2021/07/09 08:12:14;;;;;;;14.40;12.90;;;20.30;99.90;;;;;;6128970;23;20403;-41
2021/07/09 08:14:42;;;;;;;13.27;11.97;;;20.30;99.90;;;;;;6128772;23;20481;-51
2021/07/09 08:17:09;;;;;;;14.63;13.33;;;20.40;99.90;;;;;;6129228;23;20411;-41
2021/07/09 08:19:36;;;;;;;14.60;13.10;;;20.40;99.90;;;;;;6129352;23;20865;-43
2021/07/09 08:22:03;;;;;;;14.03;12.63;;;20.50;99.90;;;;;;6129134;23;20450;-42
2021/07/09 08:24:30;;;;;;;15.53;13.23;;;20.50;99.90;;;;;;6128711;23;20410;-45
2021/07/09 08:26:57;;;;;;;14.63;13.13;;;20.60;99.90;;;;;;6128899;23;20469;-46
2021/07/09 08:29:24;;;;;;;15.50;13.90;;;20.60;99.90;;;;;;6128741;23;20735;-47
2021/07/09 08:31:52;;;;;;;16.37;14.47;;;20.60;99.90;;;;;;6128779;23;20417;-43
2021/07/09 08:34:19;;;;;;;14.00;12.70;;;20.60;99.90;;;;;;6128831;23;20410;-46
2021/07/09 08:36:46;;;;;;;14.30;12.50;;;20.60;99.90;;;;;;6128974;23;20429;-43
2021/07/09 08:39:15;;;;;;;14.53;12.73;;;20.70;99.90;;;;;;6128134;23;20407;-42
2021/07/09 08:41:42;;;;;;;17.77;13.60;;;20.70;99.90;;;;;;6128455;23;20442;-43
2021/07/09 08:44:09;;;;;;;14.00;12.57;;;20.70;99.90;;;;;;6128333;23;20423;-44
2021/07/09 08:46:37;;;;;;;18.10;13.63;;;20.70;99.90;;;;;;6128729;23;20407;-45
2021/07/09 08:49:08;;;;;;;13.10;11.90;;;20.70;99.90;;;;;;6128565;23;20435;-49
2021/07/09 08:51:35;;;;;;;15.87;13.97;;;20.80;99.90;;;;;;6128879;23;20395;-44
2021/07/09 08:54:03;;;;;;;14.70;13.00;;;20.80;99.90;;;;;;6128272;23;20407;-46
2021/07/09 08:56:30;;;;;;;17.37;14.17;;;20.80;99.90;;;;;;6127902;23;20454;-44
2021/07/09 08:58:56;;;;;;;19.30;14.07;;;20.80;99.90;;;;;;6128433;23;20403;-46
2021/07/09 09:01:23;;;;;;;14.43;13.07;;;20.80;99.90;;;;;;6128394;23;20438;-45
2021/07/09 09:04:04;;;;;;;15.00;13.50;;;20.90;99.90;;;;;;6128683;23;20442;-44
2021/07/09 09:06:31;;;;;;;14.13;12.67;;;20.90;99.90;;;;;;6128222;23;20635;-44
2021/07/09 09:08:58;;;;;;;14.00;12.70;;;20.90;99.90;;;;;;6128222;23;20422;-46
2021/07/09 09:11:24;;;;;;;15.40;13.80;;;20.90;99.90;;;;;;6128412;23;20765;-42
2021/07/09 09:13:51;;;;;;;13.97;12.60;;;21.00;99.90;;;;;;6128483;23;20411;-46
2021/07/09 09:16:18;;;;;;;14.27;13.00;;;21.00;99.90;;;;;;6127879;23;20411;-44
2021/07/09 09:18:47;;;;;;;14.17;12.60;;;21.00;99.90;;;;;;6128117;23;20407;-44
2021/07/09 09:21:16;;;;;;;13.67;12.27;;;21.00;99.90;;;;;;6127845;23;20442;-42
2021/07/09 09:23:53;;;;;;;13.60;12.33;;;21.00;99.90;;;;;;6128179;23;20407;-45
2021/07/09 09:26:41;;;;;;;12.40;11.20;;;21.10;99.90;;;;;;6128126;23;20445;-43
2021/07/09 09:29:11;;;;;;;12.70;11.50;;;21.20;99.90;;;;;;6127946;23;20391;-45
2021/07/09 09:31:39;;;;;;;12.10;10.90;;;21.30;99.90;;;;;;6128156;23;20453;-42
2021/07/09 09:34:06;;;;;;;15.57;13.60;;;21.50;99.90;;;;;;6127921;23;20481;-47
2021/07/09 09:36:36;;;;;;;12.10;11.00;;;21.60;99.90;;;;;;6128122;23;20399;-46
2021/07/09 09:39:04;;;;;;;11.73;10.53;;;21.70;99.90;;;;;;6127920;23;20469;-46
2021/07/09 09:41:30;;;;;;;10.77;9.87;;;21.70;99.90;;;;;;6127404;23;20474;-45
2021/07/09 09:44:12;;;;;;;13.20;10.70;;;21.70;99.90;;;;;;6127952;23;20457;-48
2021/07/09 09:46:39;;;;;;;11.43;10.17;;;21.60;99.90;;;;;;6128035;23;20399;-49
2021/07/09 09:49:06;;;;;;;10.80;9.70;;;21.70;99.90;;;;;;6128090;23;20411;-44
2021/07/09 09:51:36;;;;;;;12.10;10.90;;;21.70;99.90;;;;;;6127948;23;20796;-45
2021/07/09 09:54:06;;;;;;;9.90;9.00;;;21.80;99.90;;;;;;6127603;23;20878;-46
2021/07/09 09:56:35;;;;;;;10.77;9.70;;;21.90;99.90;;;;;;6127923;23;20933;-43
2021/07/09 09:59:15;;;;;;;11.20;10.20;;;21.90;99.90;;;;;;6127757;23;20431;-43
2021/07/09 10:01:54;;;;;;;13.10;9.50;;;21.90;99.90;;;;;;6127938;23;20450;-49
2021/07/09 10:04:22;;;;;;;10.77;9.67;;;21.90;99.90;;;;;;6127736;23;20390;-42
2021/07/09 10:06:50;;;;;;;10.63;9.53;;;21.90;99.90;;;;;;6129992;23;20449;-44
2021/07/09 10:09:20;;;;;;;9.90;9.00;;;21.80;99.90;;;;;;6129924;23;20410;-42
2021/07/09 10:11:47;;;;;;;10.23;8.30;;;21.70;99.90;;;;;;6130080;23;20698;-43
2021/07/09 10:14:15;;;;;;;9.60;8.70;;;21.60;99.90;;;;;;6129533;23;20877;-48
2021/07/09 10:16:44;;;;;;;9.03;8.10;;;21.50;99.90;;;;;;6129817;23;20434;-46
2021/07/09 10:19:13;;;;;;;11.00;9.90;;;21.50;99.90;;;;;;6129620;23;20869;-43
2021/07/09 10:21:40;;;;;;;10.17;9.17;;;21.40;99.90;;;;;;6129587;23;20438;-45
2021/07/09 10:24:08;;;;;;;11.50;9.03;;;21.30;99.90;;;;;;6129634;23;20849;-43
2021/07/09 10:26:43;;;;;;;10.20;9.13;;;21.30;99.90;;;;;;6129980;23;20426;-43
2021/07/09 10:29:11;;;;;;;10.80;9.30;;;21.30;99.90;;;;;;6129400;23;20430;-47
2021/07/09 10:31:39;;;;;;;10.77;9.73;;;21.20;99.90;;;;;;6129222;23;20861;-46
2021/07/09 10:34:26;;;;;;;13.27;9.20;;;21.30;99.90;;;;;;6129350;23;20414;-41
2021/07/09 10:36:55;;;;;;;13.80;9.70;;;21.30;99.90;;;;;;6129268;23;20419;-45
2021/07/09 10:39:36;;;;;;;11.13;9.27;;;21.30;99.90;;;;;;6129611;23;20417;-48
2021/07/09 10:42:28;;;;;;;10.77;9.77;;;21.30;99.90;;;;;;6129247;23;20443;-46
2021/07/09 10:45:00;;;;;;;12.50;10.27;;;21.30;99.90;;;;;;6129550;23;20716;-47
2021/07/09 10:47:46;;;;;;;14.70;11.50;;;21.30;99.90;;;;;;6129418;23;20469;-44
2021/07/09 10:50:13;;;;;;;12.83;11.50;;;21.20;99.90;;;;;;6129307;23;20430;-47
2021/07/09 10:52:52;;;;;;;16.43;12.60;;;21.20;99.90;;;;;;6129553;23;20461;-49
2021/07/09 10:55:43;;;;;;;13.87;12.27;;;21.20;99.90;;;;;;6129267;23;20461;-46
2021/07/09 10:58:27;;;;;;;18.37;12.40;;;21.20;99.90;;;;;;6129514;23;20425;-48
2021/07/09 11:00:58;;;;;;;15.47;13.27;;;21.20;99.90;;;;;;6129597;23;20466;-44
2021/07/09 11:03:34;;;;;;;17.90;12.73;;;21.20;99.90;;;;;;6128900;23;20442;-46
2021/07/09 11:06:03;;;;;;;17.30;14.77;;;21.20;99.90;;;;;;6129007;23;20438;-46
2021/07/09 11:08:41;;;;;;;16.53;14.80;;;21.20;99.90;;;;;;6129478;23;20407;-47
2021/07/09 11:11:10;;;;;;;34.00;25.23;;;21.20;99.90;;;;;;6129122;23;20423;-43
2021/07/09 11:13:49;;;;;;;41.60;31.27;;;21.10;99.90;;;;;;6129599;23;20505;-46
2021/07/09 11:16:24;;;;;;;27.07;14.87;;;21.10;99.90;;;;;;6129445;23;20490;-45
2021/07/09 11:18:54;;;;;;;18.47;15.40;;;21.10;99.90;;;;;;6128453;23;20873;-46
2021/07/09 11:21:49;;;;;;;20.57;15.40;;;21.10;99.90;;;;;;6129448;23;20407;-44
2021/07/09 11:24:18;;;;;;;19.20;14.37;;;21.10;99.90;;;;;;6122532;23;20501;-45
2021/07/09 11:26:46;;;;;;;18.13;14.70;;;21.10;99.90;;;;;;6129388;23;20402;-44
2021/07/09 11:29:29;;;;;;;15.20;13.70;;;21.10;99.90;;;;;;6128945;23;20866;-41
2021/07/09 11:31:59;;;;;;;19.70;14.93;;;21.00;99.90;;;;;;6129340;23;20395;-42
2021/07/09 11:34:27;;;;;;;18.67;14.80;;;21.10;99.90;;;;;;6129315;23;20406;-47
2021/07/09 11:36:55;;;;;;;19.80;15.07;;;21.20;99.90;;;;;;6129281;23;20406;-45
2021/07/09 11:39:24;;;;;;;20.80;17.70;;;21.20;99.90;;;;;;6129098;23;20418;-47
2021/07/09 11:41:53;;;;;;;19.97;15.70;;;21.30;99.90;;;;;;6128910;23;20785;-44
2021/07/09 11:44:21;;;;;;;21.03;16.97;;;21.40;99.90;;;;;;6129267;23;20410;-41
2021/07/09 11:46:51;;;;;;;21.63;16.57;;;21.50;99.90;;;;;;6129046;23;20469;-45
2021/07/09 11:49:20;;;;;;;21.87;16.73;;;21.70;99.90;;;;;;6129992;23;20415;-44
2021/07/09 11:51:51;;;;;;;19.97;15.20;;;21.90;99.90;;;;;;6170931;23;20455;-45
2021/07/09 11:54:26;;;;;;;21.40;15.90;;;21.90;99.90;;;;;;6218351;23;20470;-43
2021/07/09 11:56:58;;;;;;;20.90;17.00;;;21.90;99.90;;;;;;6218389;23;20407;-43
2021/07/09 11:59:25;;;;;;;20.90;15.80;;;21.90;99.90;;;;;;6217943;23;20830;-45
2021/07/09 12:02:11;;;;;;;23.53;17.27;;;22.00;99.90;;;;;;6218136;23;20404;-45
2021/07/09 12:04:40;;;;;;;20.80;17.80;;;22.00;99.90;;;;;;6217676;23;20450;-49
2021/07/09 12:07:24;;;;;;;20.00;15.67;;;22.00;99.90;;;;;;6218260;23;20417;-47
2021/07/09 12:09:55;;;;;;;23.03;17.20;;;22.10;99.90;;;;;;6218154;23;20388;-47
2021/07/09 12:12:23;;;;;;;24.13;18.27;;;22.10;99.90;;;;;;6217660;23;20458;-44
2021/07/09 12:14:55;;;;;;;19.20;15.83;;;22.10;99.90;;;;;;6217995;23;20404;-45
2021/07/09 12:17:24;;;;;;;22.93;18.60;;;22.10;99.90;;;;;;6218256;23;20385;-45
2021/07/09 12:19:57;;;;;;;22.60;17.17;;;22.10;99.90;;;;;;6217628;23;20888;-45
2021/07/09 12:22:26;;;;;;;28.00;19.43;;;22.00;99.90;;;;;;6218082;23;20427;-46
2021/07/09 12:24:53;;;;;;;27.47;18.87;;;22.00;99.90;;;;;;6217876;23;20431;-51
2021/07/09 12:27:20;;;;;;;25.50;20.00;;;22.00;99.90;;;;;;6218536;23;20750;-45
2021/07/09 12:29:48;;;;;;;26.60;19.97;;;22.10;99.90;;;;;;6218680;23;20404;-44
2021/07/09 12:32:15;;;;;;;23.97;16.30;;;22.20;99.90;;;;;;6218636;23;20404;-44
2021/07/09 12:34:43;;;;;;;24.70;17.80;;;22.20;99.90;;;;;;6218173;23;20690;-49
2021/07/09 12:37:10;;;;;;;23.97;17.80;;;22.30;99.90;;;;;;6217882;23;20396;-44
2021/07/09 12:39:37;;;;;;;21.40;18.40;;;22.40;99.90;;;;;;6218029;23;20412;-45
2021/07/09 12:42:19;;;;;;;21.63;17.40;;;22.60;99.90;;;;;;6217725;23;20416;-46
2021/07/09 12:44:54;;;;;;;23.10;18.53;;;22.70;99.90;;;;;;6217606;23;20451;-43
2021/07/09 12:47:21;;;;;;;22.13;18.80;;;22.90;99.90;;;;;;6217629;23;20400;-42
2021/07/09 12:49:49;;;;;;;23.63;18.37;;;23.00;99.90;;;;;;6217665;23;20803;-47
2021/07/09 12:52:17;;;;;;;24.00;19.43;;;23.10;99.90;;;;;;6217238;23;20458;-44
2021/07/09 12:54:43;;;;;;;29.70;19.60;;;23.10;99.90;;;;;;6217555;23;20427;-50
2021/07/09 12:57:10;;;;;;;25.30;19.63;;;23.10;99.90;;;;;;6217092;23;20420;-43
2021/07/09 12:59:37;;;;;;;24.93;17.53;;;23.20;99.90;;;;;;6215521;23;20462;-42
2021/07/09 13:02:06;;;;;;;25.03;18.70;;;23.30;99.90;;;;;;6217443;23;20408;-43
2021/07/09 13:04:35;;;;;;;23.77;17.70;;;23.60;99.90;;;;;;6217204;23;20408;-45
2021/07/09 13:07:10;;;;;;;22.50;17.90;;;23.70;99.90;;;;;;6217238;23;20797;-42
2021/07/09 13:09:39;;;;;;;22.13;17.37;;;23.80;99.90;;;;;;6223136;23;20387;-46
2021/07/09 13:12:16;;;;;;;27.40;18.60;;;24.00;99.90;;;;;;6217650;23;20867;-44
2021/07/09 13:14:51;;;;;;;22.47;17.10;;;24.00;99.90;;;;;;6186625;23;20522;-44
2021/07/09 13:17:19;;;;;;;19.07;16.33;;;24.00;99.90;;;;;;6129436;23;20395;-46
2021/07/09 13:35:31;;;;;;;18.87;16.10;;;24.20;99.90;;;;;;6176300;23;20442;-44
2021/07/09 13:37:58;;;;;;;24.50;17.47;;;24.10;99.90;;;;;;6191752;23;20427;-46
2021/07/09 14:19:16;;;;;;;13.63;12.23;;;24.00;99.90;;;;;;6125539;23;20461;-48
2021/07/09 14:21:43;;;;;;;13.77;12.23;;;23.90;99.90;;;;;;6133828;23;21091;-45
2021/07/09 14:52:40;;;;;;;11.87;10.67;;;22.90;99.90;;;;;;6099460;23;20802;-41
2021/07/09 14:55:09;;;;;;;9.80;8.47;;;22.90;99.90;;;;;;6196307;23;20405;-46
2021/07/09 15:00:13;;;;;;;7.60;5.07;;;22.70;99.90;;;;;;6134112;23;20504;-43
2021/07/09 15:13:03;;;;;;;4.07;3.40;;;21.60;99.90;;;;;;6100413;22;20502;-42
2021/07/09 15:15:30;;;;;;;3.90;3.13;;;21.40;99.90;;;;;;6215026;23;20373;-45
2021/07/09 15:17:56;;;;;;;3.20;2.90;;;21.40;99.90;;;;;;6214724;23;20393;-46
2021/07/09 15:20:23;;;;;;;4.80;2.47;;;21.30;99.90;;;;;;6214712;23;20388;-49
2021/07/09 15:22:51;;;;;;;5.50;2.40;;;21.20;99.90;;;;;;6214251;23;20445;-50
2021/07/09 15:25:18;;;;;;;2.83;2.20;;;21.10;99.90;;;;;;6213816;23;20457;-48
2021/07/09 15:27:46;;;;;;;6.97;2.70;;;21.00;99.90;;;;;;6214046;23;20393;-50
2021/07/09 15:30:15;;;;;;;3.17;2.67;;;20.80;99.90;;;;;;6214078;23;20389;-48
2021/07/09 15:32:42;;;;;;;2.93;2.30;;;20.70;99.90;;;;;;6214469;23;20420;-49
2021/07/09 15:35:10;;;;;;;3.50;2.43;;;20.70;99.90;;;;;;6214025;23;20389;-51
2021/07/09 15:37:36;;;;;;;3.23;2.10;;;20.60;99.90;;;;;;6214173;23;20381;-51
2021/07/09 15:40:04;;;;;;;3.93;3.00;;;20.50;99.90;;;;;;6214111;23;20397;-51
2021/07/09 15:42:31;;;;;;;3.07;2.77;;;20.50;99.90;;;;;;6214217;23;20412;-50
2021/07/09 15:44:57;;;;;;;2.90;2.70;;;20.40;99.90;;;;;;6213850;23;20385;-50
2021/07/09 15:47:30;;;;;;;2.50;2.23;;;20.40;99.90;;;;;;6214145;23;20409;-48
2021/07/09 15:49:57;;;;;;;2.90;2.37;;;20.30;99.90;;;;;;6213942;23;20385;-50
2021/07/09 15:52:23;;;;;;;5.20;2.67;;;20.30;99.90;;;;;;6213944;23;20389;-44
2021/07/09 15:54:50;;;;;;;2.67;2.03;;;20.20;99.90;;;;;;6214166;23;20381;-45
2021/07/09 15:57:18;;;;;;;2.67;2.47;;;20.10;99.90;;;;;;6214048;23;20411;-44
2021/07/09 15:59:45;;;;;;;2.90;2.23;;;20.00;99.90;;;;;;6214732;23;20412;-45
2021/07/09 20:24:20;;;;;;;5.43;3.90;;;17.00;99.90;;;;;;6163831;23;20496;-46
2021/07/09 20:26:46;;;;;;;3.50;3.13;;;17.00;99.90;;;;;;6193280;23;20428;-41
2021/07/09 20:29:13;;;;;;;3.53;3.23;;;16.90;99.90;;;;;;6187361;23;20739;-42
2021/07/09 20:31:40;;;;;;;3.63;3.33;;;16.90;99.90;;;;;;6187382;23;20408;-43
2021/07/09 20:34:07;;;;;;;3.67;3.30;;;17.00;99.90;;;;;;6187394;23;20416;-43
2021/07/09 20:36:33;;;;;;;4.83;3.90;;;17.00;99.90;;;;;;6187477;23;20515;-43
2021/07/09 20:39:00;;;;;;;2.87;2.67;;;17.00;99.90;;;;;;6189971;23;20756;-42
2021/07/09 20:41:28;;;;;;;3.47;3.17;;;16.90;99.90;;;;;;6191359;23;20476;-41
2021/07/09 20:43:56;;;;;;;3.40;2.80;;;16.90;99.90;;;;;;6190945;23;20476;-43
2021/07/09 20:46:23;;;;;;;3.50;2.97;;;16.90;99.90;;;;;;6189349;23;20750;-43
2021/07/09 20:48:50;;;;;;;3.23;2.93;;;16.90;99.90;;;;;;6188917;23;20701;-44
2021/07/09 20:51:16;;;;;;;3.70;3.00;;;17.00;99.90;;;;;;6187229;23;20497;-44
2021/07/09 20:53:43;;;;;;;2.83;2.63;;;17.00;99.90;;;;;;6187288;23;20397;-43
2021/07/09 20:56:10;;;;;;;2.60;2.40;;;17.00;99.90;;;;;;6187261;23;20408;-41
2021/07/09 21:09:00;;;;;;;2.77;2.57;;;16.80;99.90;;;;;;6135183;23;20465;-42
2021/07/09 21:11:27;;;;;;;5.37;2.80;;;16.80;99.90;;;;;;6127736;23;20414;-45
2021/07/09 21:13:55;;;;;;;3.90;2.97;;;16.70;99.90;;;;;;6127810;23;20398;-45
2021/07/09 21:16:22;;;;;;;4.47;2.40;;;16.60;99.90;;;;;;6128087;23;20403;-42
2021/07/09 21:18:48;;;;;;;3.40;3.03;;;16.60;99.90;;;;;;6128013;23;20889;-47
2021/07/09 21:21:15;;;;;;;2.70;2.30;;;16.60;99.90;;;;;;6128204;23;20402;-43
2021/07/09 21:23:44;;;;;;;3.07;2.73;;;16.50;99.90;;;;;;6128044;23;20439;-46
2021/07/09 21:26:12;;;;;;;3.30;2.63;;;16.50;99.90;;;;;;6129651;23;20481;-43
2021/07/09 21:28:38;;;;;;;2.90;2.43;;;16.50;99.90;;;;;;6129810;23;20414;-45
2021/07/09 21:31:06;;;;;;;3.00;2.70;;;16.40;99.90;;;;;;6129037;23;20441;-41
2021/07/09 21:33:32;;;;;;;3.13;2.83;;;16.40;99.90;;;;;;6127137;23;20481;-42
2021/07/09 21:35:59;;;;;;;2.50;2.30;;;16.30;99.90;;;;;;6128341;23;20744;-41
2021/07/09 21:38:27;;;;;;;2.67;2.47;;;16.30;99.90;;;;;;6128417;23;20410;-43
2021/07/09 21:40:54;;;;;;;6.53;2.70;;;16.40;99.90;;;;;;6128200;23;20411;-41
2021/07/09 21:43:22;;;;;;;4.50;2.77;;;16.40;99.90;;;;;;6127386;23;20442;-47
2021/07/09 21:45:48;;;;;;;4.17;3.00;;;16.40;99.90;;;;;;6127820;23;20414;-43
2021/07/09 21:48:15;;;;;;;2.50;2.30;;;16.40;99.90;;;;;;6127906;23;20407;-44
2021/07/09 21:50:45;;;;;;;2.50;2.30;;;16.40;99.90;;;;;;6128026;23;20418;-44
2021/07/09 21:53:12;;;;;;;3.17;2.50;;;16.40;99.90;;;;;;6127601;23;20881;-47
2021/07/09 21:55:42;;;;;;;3.03;2.70;;;16.40;99.90;;;;;;6127976;23;20423;-44
2021/07/09 21:58:09;;;;;;;2.77;2.57;;;16.40;99.90;;;;;;6127679;23;20419;-41
2021/07/09 22:00:37;;;;;;;2.50;2.30;;;16.30;99.90;;;;;;6127933;23;20419;-43
2021/07/09 22:03:07;;;;;;;3.00;2.70;;;16.30;99.90;;;;;;6129647;23;20929;-43
2021/07/09 22:05:34;;;;;;;3.37;3.07;;;16.30;99.90;;;;;;6130545;23;20727;-43
2021/07/09 22:08:01;;;;;;;3.60;3.03;;;16.20;99.90;;;;;;6130124;23;20481;-42
2021/07/09 22:10:28;;;;;;;2.80;2.17;;;16.20;99.90;;;;;;6130029;23;20857;-47
2021/07/09 22:12:54;;;;;;;2.90;2.60;;;16.20;99.90;;;;;;6130285;23;20474;-41
2021/07/09 22:15:23;;;;;;;3.63;2.50;;;16.10;99.90;;;;;;6129715;23;20399;-43
2021/07/09 22:17:51;;;;;;;3.37;2.90;;;16.20;99.90;;;;;;6131670;23;20705;-42
2021/07/09 22:20:18;;;;;;;4.33;2.73;;;16.20;99.90;;;;;;6134820;23;20469;-42
2021/07/09 22:22:45;;;;;;;3.07;2.77;;;16.20;99.90;;;;;;6134623;23;20403;-42
2021/07/09 22:25:12;;;;;;;8.93;2.87;;;16.10;99.90;;;;;;6135646;23;20443;-44
2021/07/09 22:27:39;;;;;;;3.37;2.80;;;16.10;99.90;;;;;;6134828;23;20414;-41